Time;durP1;ratioP1;P1;durP2;ratioP2;P2;SDS_P1;SDS_P2;PMS_P1;PMS_P2;Temp;Humidity;BMP_temperature;BMP_pressure;BME280_temperature;BME280_humidity;BME280_pressure;Samples;Min_cycle;Max_cycle;Signal;HPM_P1;HPM_P2
2022/03/12 00:00:48;;;;;;;;;;;12.80;67.10;;;;;;4343779;33;45758;-80
2022/03/12 00:03:15;;;;;;;;;;;12.90;67.80;;;;;;4344803;33;42629;-80
2022/03/12 00:05:49;;;;;;;;;;;12.80;67.20;;;;;;4347449;33;43801;-80
2022/03/12 00:08:16;;;;;;;;;;;12.80;67.20;;;;;;4347426;33;43420;-80
2022/03/12 00:10:50;;;;;;;;;;;12.80;68.90;;;;;;4347723;33;43918;-80
2022/03/12 00:13:20;;;;;;;;;;;12.80;68.60;;;;;;4346730;33;42993;-80
2022/03/12 00:15:53;;;;;;;;;;;12.80;68.40;;;;;;4347265;33;42506;-80
2022/03/12 00:18:20;;;;;;;;;;;12.80;70.10;;;;;;4346539;33;44211;-80
2022/03/12 00:20:48;;;;;;;;;;;12.80;70.50;;;;;;4346030;33;43854;-79
2022/03/12 00:23:18;;;;;;;;;;;12.80;70.20;;;;;;4347074;33;42803;-80
2022/03/12 00:25:48;;;;;;;;;;;12.80;70.70;;;;;;4346362;33;44417;-80
2022/03/12 00:28:16;;;;;;;;;;;12.80;71.90;;;;;;4347058;33;42429;-79
2022/03/12 00:30:45;;;;;;;;;;;12.80;72.60;;;;;;4346442;33;45888;-80
2022/03/12 00:33:12;;;;;;;;;;;12.80;73.00;;;;;;4346835;33;44162;-80
2022/03/12 00:35:40;;;;;;;;;;;12.80;73.70;;;;;;4346953;33;42859;-81
2022/03/12 00:38:07;;;;;;;;;;;12.80;74.10;;;;;;4346450;33;43061;-80
2022/03/12 00:40:35;;;;;;;;;;;12.80;74.70;;;;;;4345807;33;44625;-80
2022/03/12 00:43:02;;;;;;;;;;;12.70;74.70;;;;;;4347337;33;43446;-80
2022/03/12 00:45:30;;;;;;;;;;;12.70;75.60;;;;;;4346013;33;43164;-80
2022/03/12 00:47:57;;;;;;;;;;;12.70;76.10;;;;;;4346786;33;44092;-80
2022/03/12 00:50:24;;;;;;;;;;;12.70;76.20;;;;;;4345578;33;46046;-80
2022/03/12 00:52:51;;;;;;;;;;;12.70;76.30;;;;;;4345939;33;45024;-80
2022/03/12 00:55:18;;;;;;;;;;;12.70;75.80;;;;;;4345525;33;43255;-80
2022/03/12 00:57:45;;;;;;;;;;;12.70;75.70;;;;;;4346774;33;42305;-80
2022/03/12 01:00:14;;;;;;;;;;;12.70;76.10;;;;;;4345447;33;45118;-82
2022/03/12 01:02:41;;;;;;;;;;;12.60;76.10;;;;;;4345550;33;44068;-80
2022/03/12 01:05:09;;;;;;;;;;;12.70;76.80;;;;;;4346887;33;44069;-80
2022/03/12 01:07:36;;;;;;;;;;;12.70;77.60;;;;;;4346470;33;43539;-80
2022/03/12 01:10:04;;;;;;;;;;;12.60;77.80;;;;;;4346985;33;44243;-80
2022/03/12 01:12:31;;;;;;;;;;;12.70;78.40;;;;;;4347060;33;43478;-80
2022/03/12 01:14:58;;;;;;;;;;;12.60;78.80;;;;;;4345853;33;43296;-80
2022/03/12 01:17:25;;;;;;;;;;;12.60;79.20;;;;;;4346358;33;42898;-80
2022/03/12 01:19:52;;;;;;;;;;;12.60;79.90;;;;;;4346748;33;44359;-81
2022/03/12 01:22:23;;;;;;;;;;;12.60;79.90;;;;;;4346390;33;44271;-81
2022/03/12 01:24:50;;;;;;;;;;;12.60;80.70;;;;;;4345740;33;45762;-80
2022/03/12 01:27:18;;;;;;;;;;;12.60;81.90;;;;;;4345098;33;42740;-80
2022/03/12 01:29:45;;;;;;;;;;;12.60;81.10;;;;;;4345226;33;44103;-80
2022/03/12 01:32:12;;;;;;;;;;;12.60;81.70;;;;;;4345367;33;44185;-80
2022/03/12 01:34:39;;;;;;;;;;;12.60;82.10;;;;;;4345410;33;43446;-80
2022/03/12 01:37:09;;;;;;;;;;;12.60;82.00;;;;;;4346700;33;43473;-80
2022/03/12 01:39:36;;;;;;;;;;;12.60;83.30;;;;;;4345099;33;44420;-80
2022/03/12 01:42:06;;;;;;;;;;;12.60;83.90;;;;;;4344861;33;45745;-80
2022/03/12 01:44:33;;;;;;;;;;;12.60;85.10;;;;;;4345587;33;43176;-80
2022/03/12 01:47:05;;;;;;;;;;;12.50;85.30;;;;;;4345357;33;43175;-80
2022/03/12 01:49:32;;;;;;;;;;;12.50;85.80;;;;;;4346379;33;43057;-80
2022/03/12 01:51:59;;;;;;;;;;;12.50;86.00;;;;;;4345869;33;19997;-80
2022/03/12 01:54:28;;;;;;;;;;;12.50;86.00;;;;;;4346317;32;45419;-80
2022/03/12 01:56:56;;;;;;;;;;;12.50;85.40;;;;;;4344958;33;43936;-80
2022/03/12 01:59:24;;;;;;;;;;;12.50;86.00;;;;;;4345779;33;43589;-80
2022/03/12 02:01:52;;;;;;;;;;;12.50;86.30;;;;;;4345451;33;43992;-81
2022/03/12 02:04:20;;;;;;;;;;;12.50;86.20;;;;;;4346369;33;43314;-80
2022/03/12 02:06:47;;;;;;;;;;;12.50;87.40;;;;;;4344505;33;44913;-80
2022/03/12 02:09:15;;;;;;;;;;;12.50;87.30;;;;;;4345893;33;43335;-81
2022/03/12 02:11:45;;;;;;;;;;;12.50;87.80;;;;;;4344570;33;43858;-80
2022/03/12 02:14:13;;;;;;;;;;;12.50;88.40;;;;;;4344846;33;43183;-80
2022/03/12 02:16:44;;;;;;;;;;;12.50;88.60;;;;;;4344382;33;43272;-80
2022/03/12 02:19:11;;;;;;;;;;;12.50;88.70;;;;;;4344817;33;43354;-80
2022/03/12 02:21:42;;;;;;;;;;;12.50;89.30;;;;;;4344342;33;43350;-80
2022/03/12 02:24:15;;;;;;;;;;;12.50;89.80;;;;;;4344462;33;43530;-80
2022/03/12 02:26:43;;;;;;;;;;;12.40;89.50;;;;;;4345783;33;43959;-80
2022/03/12 02:29:15;;;;;;;;;;;12.40;90.10;;;;;;4344224;33;43492;-80
2022/03/12 02:31:45;;;;;;;;;;;12.40;90.40;;;;;;4344351;33;45233;-81
2022/03/12 02:34:12;;;;;;;;;;;12.40;90.30;;;;;;4345846;33;43958;-81
2022/03/12 02:36:40;;;;;;;;;;;12.40;90.50;;;;;;4344447;33;42889;-81
2022/03/12 02:39:07;;;;;;;;;;;12.40;90.50;;;;;;4345757;33;43215;-80
2022/03/12 02:41:34;;;;;;;;;;;12.40;90.60;;;;;;4344466;33;43503;-81
2022/03/12 02:44:03;;;;;;;;;;;12.30;90.80;;;;;;4344586;33;44012;-80
2022/03/12 02:46:32;;;;;;;;;;;12.30;91.00;;;;;;4345114;33;44207;-80
2022/03/12 02:49:01;;;;;;;;;;;12.30;91.00;;;;;;4345422;33;44230;-80
2022/03/12 02:51:28;;;;;;;;;;;12.30;91.20;;;;;;4345105;33;43528;-80
2022/03/12 02:53:56;;;;;;;;;;;12.20;91.40;;;;;;4345289;33;45659;-80
2022/03/12 02:56:23;;;;;;;;;;;12.20;91.00;;;;;;4344335;33;42705;-81
2022/03/12 02:58:51;;;;;;;;;;;12.20;91.40;;;;;;4345167;33;43826;-81
2022/03/12 03:01:18;;;;;;;;;;;12.20;91.80;;;;;;4344438;33;45825;-80
2022/03/12 03:03:46;;;;;;;;;;;12.20;92.20;;;;;;4345362;33;44731;-80
2022/03/12 03:06:14;;;;;;;;;;;12.10;91.90;;;;;;4343876;33;42373;-80
2022/03/12 03:08:42;;;;;;;;;;;12.10;91.80;;;;;;4344376;33;43854;-80
2022/03/12 03:11:11;;;;;;;;;;;12.10;91.80;;;;;;4344871;33;45271;-80
2022/03/12 03:13:41;;;;;;;;;;;12.10;92.20;;;;;;4343830;33;42311;-80
2022/03/12 03:16:09;;;;;;;;;;;12.10;92.20;;;;;;4344104;33;44019;-81
2022/03/12 03:18:39;;;;;;;;;;;12.10;92.20;;;;;;4344048;33;43265;-80
2022/03/12 03:21:08;;;;;;;;;;;12.10;92.20;;;;;;4344133;33;43292;-80
2022/03/12 03:23:35;;;;;;;;;;;12.10;92.40;;;;;;4344181;33;44183;-81
2022/03/12 03:26:03;;;;;;;;;;;12.10;92.50;;;;;;4343957;33;43852;-81
2022/03/12 03:28:30;;;;;;;;;;;12.10;92.30;;;;;;4343936;33;44171;-80
2022/03/12 03:30:57;;;;;;;;;;;12.10;92.80;;;;;;4344932;33;44596;-80
2022/03/12 03:33:25;;;;;;;;;;;12.10;92.70;;;;;;4344991;33;42927;-80
2022/03/12 03:35:52;;;;;;;;;;;12.00;92.80;;;;;;4344890;33;43320;-81
2022/03/12 03:38:20;;;;;;;;;;;12.00;92.90;;;;;;4346624;33;43704;-81
2022/03/12 03:40:47;;;;;;;;;;;12.00;93.00;;;;;;4346682;33;43935;-81
2022/03/12 03:43:15;;;;;;;;;;;12.00;93.10;;;;;;4346646;33;45887;-81
2022/03/12 03:45:43;;;;;;;;;;;12.00;93.00;;;;;;4347987;33;43835;-80
2022/03/12 03:48:21;;;;;;;;;;;12.00;93.20;;;;;;4346918;33;42715;-80
2022/03/12 03:50:49;;;;;;;;;;;12.00;93.20;;;;;;4348122;33;43375;-81
2022/03/12 03:53:17;;;;;;;;;;;12.00;93.20;;;;;;4348058;33;44089;-81
2022/03/12 03:55:44;;;;;;;;;;;12.00;93.10;;;;;;4346411;33;44103;-80
2022/03/12 03:58:12;;;;;;;;;;;12.00;93.40;;;;;;4346781;33;46007;-80
2022/03/12 04:00:44;;;;;;;;;;;12.00;93.60;;;;;;4346405;33;43330;-80
2022/03/12 04:03:12;;;;;;;;;;;12.00;93.50;;;;;;4346259;33;44619;-81
2022/03/12 04:05:40;;;;;;;;;;;11.90;93.50;;;;;;4346148;33;42935;-80
2022/03/12 04:08:07;;;;;;;;;;;11.90;93.60;;;;;;4346452;33;44257;-81
2022/03/12 04:10:35;;;;;;;;;;;11.90;93.70;;;;;;4347242;33;43809;-81
2022/03/12 04:13:13;;;;;;;;;;;12.00;93.70;;;;;;4346187;33;43730;-81
2022/03/12 04:15:40;;;;;;;;;;;11.90;93.70;;;;;;4346178;33;44001;-81
2022/03/12 04:18:08;;;;;;;;;;;11.90;93.80;;;;;;4346354;33;42748;-82
2022/03/12 04:20:36;;;;;;;;;;;11.90;93.80;;;;;;4346344;33;42495;-81
2022/03/12 04:23:03;;;;;;;;;;;11.90;94.10;;;;;;4347015;33;19997;-80
2022/03/12 04:25:31;;;;;;;;;;;11.90;94.20;;;;;;4347300;33;46264;-80
2022/03/12 04:27:58;;;;;;;;;;;11.90;94.20;;;;;;4346472;33;42972;-81
2022/03/12 04:30:28;;;;;;;;;;;11.90;94.20;;;;;;4346261;33;45073;-81
2022/03/12 04:32:56;;;;;;;;;;;11.90;94.20;;;;;;4346404;33;43242;-81
2022/03/12 04:35:24;;;;;;;;;;;11.90;94.00;;;;;;4347261;33;44111;-81
2022/03/12 04:37:52;;;;;;;;;;;11.80;94.30;;;;;;4347520;33;43914;-81
2022/03/12 04:40:23;;;;;;;;;;;11.80;94.40;;;;;;4347189;32;45464;-82
2022/03/12 04:42:50;;;;;;;;;;;11.80;94.40;;;;;;4345971;33;44161;-81
2022/03/12 04:45:19;;;;;;;;;;;11.80;94.40;;;;;;4347332;33;43414;-81
2022/03/12 04:47:47;;;;;;;;;;;11.80;94.40;;;;;;4347280;33;44069;-81
2022/03/12 04:50:16;;;;;;;;;;;11.80;94.50;;;;;;4346544;33;43329;-81
2022/03/12 04:52:44;;;;;;;;;;;11.80;94.70;;;;;;4346984;33;44213;-80
2022/03/12 04:55:13;;;;;;;;;;;11.80;94.80;;;;;;4345816;33;43906;-81
2022/03/12 04:57:40;;;;;;;;;;;11.80;94.70;;;;;;4346082;33;43469;-80
2022/03/12 05:00:15;;;;;;;;;;;11.70;94.80;;;;;;4346095;33;43542;-81
2022/03/12 05:02:43;;;;;;;;;;;11.80;95.00;;;;;;4346020;33;43347;-81
2022/03/12 05:05:11;;;;;;;;;;;11.70;95.00;;;;;;4346921;33;43186;-81
2022/03/12 05:07:43;;;;;;;;;;;11.70;94.80;;;;;;4346533;33;43339;-81
2022/03/12 05:10:12;;;;;;;;;;;11.70;94.90;;;;;;4345996;33;43986;-81
2022/03/12 05:12:40;;;;;;;;;;;11.70;94.90;;;;;;4346910;33;43942;-81
2022/03/12 05:15:09;;;;;;;;;;;11.80;94.90;;;;;;4346906;33;44151;-81
2022/03/12 05:17:42;;;;;;;;;;;11.70;94.80;;;;;;4346596;33;44105;-81
2022/03/12 05:20:10;;;;;;;;;;;11.70;95.00;;;;;;4346801;32;44635;-81
2022/03/12 05:22:37;;;;;;;;;;;11.70;94.80;;;;;;4345661;33;44337;-81
2022/03/12 05:25:05;;;;;;;;;;;11.70;94.90;;;;;;4346302;33;43070;-81
2022/03/12 05:27:32;;;;;;;;;;;11.70;95.10;;;;;;4345565;33;43465;-81
2022/03/12 05:30:00;;;;;;;;;;;11.70;95.00;;;;;;4345161;33;42324;-81
2022/03/12 05:32:27;;;;;;;;;;;11.70;95.20;;;;;;4345589;33;45280;-81
2022/03/12 05:34:54;;;;;;;;;;;11.70;95.20;;;;;;4346602;33;43520;-81
2022/03/12 05:37:22;;;;;;;;;;;11.70;95.10;;;;;;4346033;33;44119;-81
2022/03/12 05:39:51;;;;;;;;;;;11.70;95.50;;;;;;4346596;33;43512;-81
2022/03/12 05:42:20;;;;;;;;;;;11.70;95.30;;;;;;4346195;33;43394;-81
2022/03/12 05:44:47;;;;;;;;;;;11.60;95.30;;;;;;4346427;33;43996;-81
2022/03/12 05:47:15;;;;;;;;;;;11.60;95.30;;;;;;4344820;33;44200;-81
2022/03/12 05:49:43;;;;;;;;;;;11.70;95.20;;;;;;4344749;33;43544;-81
2022/03/12 05:52:10;;;;;;;;;;;11.70;95.10;;;;;;4344734;33;45782;-81
2022/03/12 05:54:37;;;;;;;;;;;11.60;95.20;;;;;;4346457;33;43110;-81
2022/03/12 05:57:04;;;;;;;;;;;11.60;95.30;;;;;;4345356;33;44752;-82
2022/03/12 05:59:31;;;;;;;;;;;11.70;95.20;;;;;;4344710;33;42968;-81
2022/03/12 06:01:59;;;;;;;;;;;11.60;95.40;;;;;;4345441;33;44214;-81
2022/03/12 06:04:26;;;;;;;;;;;11.60;95.30;;;;;;4346017;32;45179;-81
2022/03/12 06:06:54;;;;;;;;;;;11.60;95.40;;;;;;4345613;33;43341;-81
2022/03/12 06:09:21;;;;;;;;;;;11.60;95.30;;;;;;4346174;33;43927;-81
2022/03/12 06:11:52;;;;;;;;;;;11.60;95.30;;;;;;4345504;32;44183;-81
2022/03/12 06:14:24;;;;;;;;;;;11.60;95.20;;;;;;4344645;33;43003;-81
2022/03/12 06:16:51;;;;;;;;;;;11.60;95.20;;;;;;4345048;33;43482;-82
2022/03/12 06:19:21;;;;;;;;;;;11.60;95.30;;;;;;4345505;33;43252;-81
2022/03/12 06:21:48;;;;;;;;;;;11.60;95.30;;;;;;4345742;33;44891;-81
2022/03/12 06:24:16;;;;;;;;;;;11.60;95.40;;;;;;4344573;33;44079;-81
2022/03/12 06:26:43;;;;;;;;;;;11.60;95.50;;;;;;4345817;33;44838;-81
2022/03/12 06:29:13;;;;;;;;;;;11.60;95.60;;;;;;4345756;33;44048;-81
2022/03/12 06:31:43;;;;;;;;;;;11.60;95.60;;;;;;4344350;33;44269;-81
2022/03/12 06:34:12;;;;;;;;;;;11.60;95.60;;;;;;4344126;33;43591;-81
2022/03/12 06:36:39;;;;;;;;;;;11.50;95.70;;;;;;4345601;33;43273;-81
2022/03/12 06:39:07;;;;;;;;;;;11.50;96.00;;;;;;4345381;33;44055;-81
2022/03/12 06:41:38;;;;;;;;;;;11.50;95.70;;;;;;4344186;33;44242;-81
2022/03/12 06:44:06;;;;;;;;;;;11.50;95.80;;;;;;4344502;33;44109;-82
2022/03/12 06:46:35;;;;;;;;;;;11.50;95.90;;;;;;4344409;33;44903;-81
2022/03/12 06:49:04;;;;;;;;;;;11.50;95.80;;;;;;4345140;33;44675;-81
2022/03/12 06:51:32;;;;;;;;;;;11.50;95.90;;;;;;4344426;33;44798;-81
2022/03/12 06:53:59;;;;;;;;;;;11.50;96.00;;;;;;4344994;33;43923;-81
2022/03/12 06:56:27;;;;;;;;;;;11.50;96.00;;;;;;4344243;33;44297;-81
2022/03/12 06:58:54;;;;;;;;;;;11.50;96.20;;;;;;4344389;33;44286;-81
2022/03/12 07:01:21;;;;;;;;;;;11.40;96.20;;;;;;4344814;33;44124;-81
2022/03/12 07:03:49;;;;;;;;;;;11.40;96.20;;;;;;4344039;33;43133;-81
2022/03/12 07:06:16;;;;;;;;;;;11.40;96.30;;;;;;4344371;33;45775;-80
2022/03/12 07:08:43;;;;;;;;;;;11.40;96.40;;;;;;4345243;33;42677;-81
2022/03/12 07:11:11;;;;;;;;;;;11.40;96.30;;;;;;4344289;33;45836;-81
2022/03/12 07:13:38;;;;;;;;;;;11.40;96.30;;;;;;4344327;33;43328;-81
2022/03/12 07:16:05;;;;;;;;;;;11.40;96.40;;;;;;4343880;33;43526;-81
2022/03/12 07:18:32;;;;;;;;;;;11.40;96.40;;;;;;4343953;33;42317;-81
2022/03/12 07:21:00;;;;;;;;;;;11.40;96.50;;;;;;4344256;33;45796;-80
2022/03/12 07:23:27;;;;;;;;;;;11.30;96.50;;;;;;4343672;33;44646;-81
2022/03/12 07:25:55;;;;;;;;;;;11.30;96.40;;;;;;4345165;33;43176;-81
2022/03/12 07:28:22;;;;;;;;;;;11.30;96.60;;;;;;4343627;33;43758;-80
2022/03/12 07:30:50;;;;;;;;;;;11.30;96.70;;;;;;4344858;33;42542;-81
2022/03/12 07:33:17;;;;;;;;;;;11.30;96.50;;;;;;4345154;33;44156;-81
2022/03/12 07:35:44;;;;;;;;;;;11.40;96.80;;;;;;4343584;33;45845;-82
2022/03/12 07:38:11;;;;;;;;;;;11.30;96.80;;;;;;4343695;33;44200;-80
2022/03/12 07:40:40;;;;;;;;;;;11.30;96.70;;;;;;4345023;33;46067;-81
2022/03/12 07:43:07;;;;;;;;;;;11.30;96.80;;;;;;4343953;33;42822;-81
2022/03/12 07:45:34;;;;;;;;;;;11.30;96.90;;;;;;4344798;33;42828;-81
2022/03/12 07:48:02;;;;;;;;;;;11.30;96.90;;;;;;4343560;33;42589;-81
2022/03/12 07:50:47;;;;;;;;;;;11.30;97.00;;;;;;4344254;33;43141;-80
2022/03/12 07:53:14;;;;;;;;;;;11.30;96.90;;;;;;4343870;33;45708;-80
2022/03/12 07:55:41;;;;;;;;;;;11.30;96.90;;;;;;4343443;33;42604;-81
2022/03/12 07:58:08;;;;;;;;;;;11.30;97.10;;;;;;4345011;33;44278;-81
2022/03/12 08:00:36;;;;;;;;;;;11.30;97.20;;;;;;4343755;33;43325;-81
2022/03/12 08:03:03;;;;;;;;;;;11.30;97.10;;;;;;4343370;33;43478;-80
2022/03/12 08:05:31;;;;;;;;;;;11.30;97.10;;;;;;4343918;33;45843;-80
2022/03/12 08:08:00;;;;;;;;;;;11.30;97.10;;;;;;4344894;33;43410;-80
2022/03/12 08:10:27;;;;;;;;;;;11.30;97.30;;;;;;4344639;33;43183;-80
2022/03/12 08:12:56;;;;;;;;;;;11.30;97.10;;;;;;4344696;33;43844;-80
2022/03/12 08:15:23;;;;;;;;;;;11.30;97.40;;;;;;4343615;33;43960;-80
2022/03/12 08:17:50;;;;;;;;;;;11.30;97.40;;;;;;4343345;33;43279;-80
2022/03/12 08:20:18;;;;;;;;;;;11.30;97.40;;;;;;4344803;33;43136;-81
2022/03/12 08:22:46;;;;;;;;;;;11.30;97.50;;;;;;4343405;33;44267;-81
2022/03/12 08:25:14;;;;;;;;;;;11.30;97.70;;;;;;4347182;33;42696;-80
2022/03/12 08:27:41;;;;;;;;;;;11.30;97.60;;;;;;4346232;33;44093;-80
2022/03/12 08:30:08;;;;;;;;;;;11.20;97.60;;;;;;4347151;33;45953;-80
2022/03/12 08:32:36;;;;;;;;;;;11.30;97.70;;;;;;4346015;33;44153;-80
2022/03/12 08:35:05;;;;;;;;;;;11.20;97.80;;;;;;4347334;33;44081;-80
2022/03/12 08:37:33;;;;;;;;;;;11.30;97.80;;;;;;4347033;33;44147;-80
2022/03/12 08:40:06;;;;;;;;;;;11.30;97.80;;;;;;4346490;33;43971;-80
2022/03/12 08:42:34;;;;;;;;;;;11.30;97.80;;;;;;4346374;33;44261;-80
2022/03/12 08:45:02;;;;;;;;;;;11.30;97.80;;;;;;4346975;33;42661;-80
2022/03/12 08:47:29;;;;;;;;;;;11.30;98.00;;;;;;4346221;33;44219;-81
2022/03/12 08:49:56;;;;;;;;;;;11.30;97.90;;;;;;4345685;33;45802;-81
2022/03/12 08:52:23;;;;;;;;;;;11.30;98.10;;;;;;4346919;33;44536;-80
2022/03/12 08:54:50;;;;;;;;;;;11.30;97.90;;;;;;4345653;33;43385;-80
2022/03/12 08:57:18;;;;;;;;;;;11.30;97.90;;;;;;4346591;33;44625;-80
2022/03/12 08:59:47;;;;;;;;;;;11.40;98.00;;;;;;4345613;33;43079;-80
2022/03/12 09:02:14;;;;;;;;;;;11.30;97.90;;;;;;4346751;33;43904;-80
2022/03/12 09:04:41;;;;;;;;;;;11.40;98.10;;;;;;4345517;33;44081;-80
2022/03/12 09:07:08;;;;;;;;;;;11.40;98.00;;;;;;4345526;33;44352;-80
2022/03/12 09:09:35;;;;;;;;;;;11.40;98.00;;;;;;4346452;33;44576;-80
2022/03/12 09:12:03;;;;;;;;;;;11.40;98.00;;;;;;4346528;33;43917;-80
2022/03/12 09:14:34;;;;;;;;;;;11.40;98.00;;;;;;4347086;33;44219;-80
2022/03/12 09:17:02;;;;;;;;;;;11.40;98.20;;;;;;4345566;33;43452;-80
2022/03/12 09:19:32;;;;;;;;;;;11.50;98.40;;;;;;4345436;33;42325;-79
2022/03/12 09:21:59;;;;;;;;;;;11.50;98.10;;;;;;4346299;33;43029;-80
2022/03/12 09:24:26;;;;;;;;;;;11.50;97.80;;;;;;4345698;33;46102;-79
2022/03/12 09:26:53;;;;;;;;;;;11.50;97.80;;;;;;4345514;33;44554;-80
2022/03/12 09:29:20;;;;;;;;;;;11.50;97.80;;;;;;4346108;33;46194;-80
2022/03/12 09:31:48;;;;;;;;;;;11.50;97.60;;;;;;4346742;33;45898;-80
2022/03/12 09:34:15;;;;;;;;;;;11.50;97.70;;;;;;4345301;33;43001;-80
2022/03/12 09:36:42;;;;;;;;;;;11.50;97.70;;;;;;4345939;33;45805;-80
2022/03/12 09:39:10;;;;;;;;;;;11.60;97.80;;;;;;4345422;33;43384;-82
2022/03/12 09:41:40;;;;;;;;;;;11.60;97.80;;;;;;4345005;33;44096;-80
2022/03/12 09:44:07;;;;;;;;;;;11.60;97.80;;;;;;4346379;33;44201;-80
2022/03/12 09:46:35;;;;;;;;;;;11.60;97.70;;;;;;4345965;33;43089;-80
2022/03/12 09:49:03;;;;;;;;;;;11.60;97.70;;;;;;4345083;33;43198;-80
2022/03/12 09:51:31;;;;;;;;;;;11.60;97.60;;;;;;4344763;33;45843;-80
2022/03/12 09:53:58;;;;;;;;;;;11.60;97.60;;;;;;4344925;33;44234;-80
2022/03/12 09:56:25;;;;;;;;;;;11.60;97.60;;;;;;4345061;33;44926;-80
2022/03/12 09:58:53;;;;;;;;;;;11.60;97.50;;;;;;4346145;33;46234;-80
2022/03/12 10:01:20;;;;;;;;;;;11.60;97.50;;;;;;4345737;33;43318;-80
2022/03/12 10:03:47;;;;;;;;;;;11.60;97.40;;;;;;4346117;33;42404;-81
2022/03/12 10:06:15;;;;;;;;;;;11.60;97.40;;;;;;4344683;33;44240;-80
2022/03/12 10:08:43;;;;;;;;;;;11.70;97.40;;;;;;4344973;33;44311;-80
2022/03/12 10:11:10;;;;;;;;;;;11.60;97.20;;;;;;4345657;33;43899;-80
2022/03/12 10:13:37;;;;;;;;;;;11.60;97.40;;;;;;4345765;33;44269;-80
2022/03/12 10:16:05;;;;;;;;;;;11.60;97.40;;;;;;4344633;33;43065;-80
2022/03/12 10:18:32;;;;;;;;;;;11.70;97.60;;;;;;4346127;33;43259;-79
2022/03/12 10:21:00;;;;;;;;;;;11.70;97.70;;;;;;4344904;33;43850;-80
2022/03/12 10:23:27;;;;;;;;;;;11.70;97.50;;;;;;4344800;33;44315;-80
2022/03/12 10:25:54;;;;;;;;;;;11.70;97.60;;;;;;4345884;33;44017;-80
2022/03/12 10:28:21;;;;;;;;;;;11.70;97.50;;;;;;4344942;33;43965;-80
2022/03/12 10:30:48;;;;;;;;;;;11.80;97.70;;;;;;4344524;33;43958;-80
2022/03/12 10:33:23;;;;;;;;;;;11.80;97.80;;;;;;4344235;33;44074;-79
2022/03/12 10:35:51;;;;;;;;;;;11.80;97.60;;;;;;4345678;33;44614;-80
2022/03/12 10:38:18;;;;;;;;;;;11.80;97.70;;;;;;4345208;33;43474;-80
2022/03/12 10:40:45;;;;;;;;;;;11.90;97.70;;;;;;4344699;33;44293;-80
2022/03/12 10:43:15;;;;;;;;;;;11.90;97.80;;;;;;4345630;33;43857;-80
2022/03/12 10:45:46;;;;;;;;;;;11.90;97.80;;;;;;4345394;33;42900;-80
2022/03/12 10:48:17;;;;;;;;;;;11.90;97.60;;;;;;4345035;33;44868;-81
2022/03/12 10:50:45;;;;;;;;;;;12.00;97.50;;;;;;4344240;33;43547;-81
2022/03/12 10:53:14;;;;;;;;;;;12.00;97.50;;;;;;4345077;33;42657;-80
2022/03/12 10:55:45;;;;;;;;;;;12.00;97.40;;;;;;4346060;33;20364;-80
2022/03/12 10:58:21;;;;;;;;;;;12.00;97.30;;;;;;4345611;33;43474;-80
2022/03/12 11:00:52;;;;;;;;;;;12.10;97.40;;;;;;4345350;33;43927;-80
2022/03/12 11:03:20;;;;;;;;;;;12.00;97.40;;;;;;4343928;33;44254;-80
2022/03/12 11:05:49;;;;;;;;;;;12.10;97.40;;;;;;4344079;33;44191;-80
2022/03/12 11:08:17;;;;;;;;;;;12.10;97.30;;;;;;4345213;33;44191;-80
2022/03/12 11:11:01;;;;;;;;;;;12.10;97.30;;;;;;4343866;33;43914;-80
2022/03/12 11:13:40;;;;;;;;;;;12.10;97.20;;;;;;4344891;33;42859;-80
2022/03/12 11:16:13;;;;;;;;;;;12.20;97.10;;;;;;4344280;33;45274;-80
2022/03/12 11:18:53;;;;;;;;;;;12.20;97.10;;;;;;4344349;33;44275;-80
2022/03/12 11:21:33;;;;;;;;;;;12.20;97.00;;;;;;4344078;33;42853;-80
2022/03/12 11:24:00;;;;;;;;;;;12.20;97.10;;;;;;4344286;33;44209;-80
2022/03/12 11:26:28;;;;;;;;;;;12.20;97.20;;;;;;4344968;33;20064;-80
2022/03/12 11:28:59;;;;;;;;;;;12.20;96.90;;;;;;4344258;33;44263;-80
2022/03/12 11:31:39;;;;;;;;;;;12.20;96.80;;;;;;4343782;33;42855;-80
2022/03/12 11:34:24;;;;;;;;;;;12.20;96.70;;;;;;4343739;33;42000;-80
2022/03/12 11:36:58;;;;;;;;;;;12.20;96.90;;;;;;4343954;33;43804;-80
2022/03/12 11:39:42;;;;;;;;;;;12.30;96.80;;;;;;4344907;33;42231;-80
2022/03/12 11:42:15;;;;;;;;;;;12.30;96.80;;;;;;4344000;33;44215;-80
2022/03/12 11:44:46;;;;;;;;;;;12.30;96.80;;;;;;4344979;33;43218;-81
2022/03/12 11:47:14;;;;;;;;;;;12.30;96.80;;;;;;4343626;33;42894;-81
2022/03/12 11:49:42;;;;;;;;;;;12.30;96.60;;;;;;4344765;33;43902;-80
2022/03/12 11:52:09;;;;;;;;;;;12.40;96.60;;;;;;4343664;33;44468;-80
2022/03/12 11:54:43;;;;;;;;;;;12.40;96.60;;;;;;4343789;33;42879;-80
2022/03/12 11:57:20;;;;;;;;;;;12.40;96.50;;;;;;4344939;33;19998;-80
2022/03/12 11:59:47;;;;;;;;;;;12.40;96.60;;;;;;4346044;33;43302;-80
2022/03/12 12:02:20;;;;;;;;;;;12.40;96.20;;;;;;4346653;33;43268;-80
2022/03/12 12:04:49;;;;;;;;;;;12.50;96.40;;;;;;4347570;33;42890;-80
2022/03/12 12:07:16;;;;;;;;;;;12.50;96.30;;;;;;4347661;33;43490;-80
2022/03/12 12:09:43;;;;;;;;;;;12.50;96.50;;;;;;4347757;33;42274;-80
2022/03/12 12:12:13;;;;;;;;;;;12.60;96.40;;;;;;4347738;33;42914;-80
2022/03/12 12:14:41;;;;;;;;;;;12.60;96.10;;;;;;4347804;33;43005;-80
2022/03/12 12:17:09;;;;;;;;;;;12.60;96.20;;;;;;4346570;33;43406;-80
2022/03/12 12:19:36;;;;;;;;;;;12.60;96.20;;;;;;4346250;33;45660;-80
2022/03/12 12:22:06;;;;;;;;;;;12.60;96.30;;;;;;4347447;33;42971;-80
2022/03/12 12:24:36;;;;;;;;;;;12.70;96.10;;;;;;4346628;33;44183;-80
2022/03/12 12:27:04;;;;;;;;;;;12.70;96.00;;;;;;4346494;33;43528;-80
2022/03/12 12:29:40;;;;;;;;;;;12.70;95.80;;;;;;4347094;33;42906;-80
2022/03/12 12:32:08;;;;;;;;;;;12.70;95.30;;;;;;4346613;33;43945;-80
2022/03/12 12:34:58;;;;;;;;;;;12.70;95.60;;;;;;4347651;33;43577;-80
2022/03/12 12:37:41;;;;;;;;;;;12.70;95.50;;;;;;4346881;33;44150;-80
2022/03/12 12:40:13;;;;;;;;;;;12.70;95.70;;;;;;4346577;33;43337;-80
2022/03/12 12:42:41;;;;;;;;;;;12.80;95.80;;;;;;4347202;33;43010;-80
2022/03/12 12:45:12;;;;;;;;;;;12.90;95.50;;;;;;4345861;33;43645;-80
2022/03/12 12:47:40;;;;;;;;;;;12.80;95.30;;;;;;4346179;33;44203;-81
2022/03/12 12:50:19;;;;;;;;;;;12.80;95.10;;;;;;4346267;33;44064;-80
2022/03/12 12:53:05;;;;;;;;;;;12.90;95.20;;;;;;4345794;33;43226;-81
2022/03/12 12:55:34;;;;;;;;;;;12.90;95.00;;;;;;4347008;33;44156;-81
2022/03/12 12:58:01;;;;;;;;;;;12.90;95.20;;;;;;4346776;33;20440;-81
2022/03/12 13:00:31;;;;;;;;;;;12.90;95.30;;;;;;4345970;33;43817;-82
2022/03/12 13:02:59;;;;;;;;;;;13.00;95.10;;;;;;4346525;32;45093;-81
2022/03/12 13:05:45;;;;;;;;;;;13.00;95.00;;;;;;4346922;33;43484;-81
2022/03/12 13:08:13;;;;;;;;;;;13.00;94.90;;;;;;4346111;33;43863;-81
2022/03/12 13:10:41;;;;;;;;;;;13.00;94.90;;;;;;4344815;33;43717;-82
2022/03/12 13:13:09;;;;;;;;;;;13.10;94.80;;;;;;4346507;33;43562;-81
2022/03/12 13:15:37;;;;;;;;;;;13.10;95.00;;;;;;4345576;33;42359;-81
2022/03/12 13:18:30;;;;;;;;;;;13.10;95.00;;;;;;4346792;33;44182;-81
2022/03/12 13:20:57;;;;;;;;;;;13.10;95.00;;;;;;4345866;33;43954;-81
2022/03/12 13:23:30;;;;;;;;;;;13.10;94.30;;;;;;4345236;33;43882;-81
2022/03/12 13:26:00;;;;;;;;;;;13.10;94.40;;;;;;4346288;33;44102;-81
2022/03/12 13:28:36;;;;;;;;;;;13.10;94.20;;;;;;4347350;32;20002;-80
2022/03/12 13:31:22;;;;;;;;;;;13.10;94.40;;;;;;4346819;33;43368;-81
2022/03/12 13:33:57;;;;;;;;;;;13.20;94.00;;;;;;4345006;33;42938;-81
2022/03/12 13:36:29;;;;;;;;;;;13.20;94.20;;;;;;4346959;33;43907;-81
2022/03/12 13:38:58;;;;;;;;;;;13.20;93.90;;;;;;4345261;33;42740;-81
2022/03/12 13:41:25;;;;;;;;;;;13.20;94.10;;;;;;4346276;33;43311;-81
2022/03/12 13:43:54;;;;;;;;;;;13.20;94.20;;;;;;4345217;33;44600;-81
2022/03/12 13:46:22;;;;;;;;;;;13.20;93.80;;;;;;4346550;33;43516;-81
2022/03/12 13:49:04;;;;;;;;;;;13.20;94.10;;;;;;4345364;33;44159;-81
2022/03/12 13:51:33;;;;;;;;;;;13.20;94.40;;;;;;4345207;33;43659;-81
2022/03/12 13:54:01;;;;;;;;;;;13.20;94.30;;;;;;4344788;33;44643;-81
2022/03/12 13:56:29;;;;;;;;;;;13.20;94.00;;;;;;4344986;33;44563;-81
2022/03/12 13:59:03;;;;;;;;;;;13.20;93.90;;;;;;4345688;33;20105;-81
2022/03/12 14:01:35;;;;;;;;;;;13.20;93.90;;;;;;4346029;33;43187;-81
2022/03/12 14:04:04;;;;;;;;;;;13.20;94.10;;;;;;4345105;33;43632;-81
2022/03/12 14:06:32;;;;;;;;;;;13.30;93.90;;;;;;4345795;33;43829;-81
2022/03/12 14:09:01;;;;;;;;;;;13.30;93.80;;;;;;4346021;33;44212;-81
2022/03/12 14:11:36;;;;;;;;;;;13.30;93.60;;;;;;4345057;33;42783;-83
2022/03/12 14:14:06;;;;;;;;;;;13.30;94.00;;;;;;4344921;33;42776;-81
2022/03/12 14:16:39;;;;;;;;;;;13.40;93.50;;;;;;4344642;33;45253;-81
2022/03/12 14:19:08;;;;;;;;;;;13.30;93.90;;;;;;4345456;33;45302;-80
2022/03/12 14:21:36;;;;;;;;;;;13.40;94.00;;;;;;4344161;33;43300;-81
2022/03/12 14:24:15;;;;;;;;;;;13.40;93.70;;;;;;4344602;33;42844;-81
2022/03/12 14:26:49;;;;;;;;;;;13.40;93.80;;;;;;4345667;33;42269;-81